Time;durP1;ratioP1;P1;durP2;ratioP2;P2;SDS_P1;SDS_P2;PMS_P1;PMS_P2;Temp;Humidity;BMP_temperature;BMP_pressure;BME280_temperature;BME280_humidity;BME280_pressure;Samples;Min_cycle;Max_cycle;Signal;HPM_P1;HPM_P2
2023/01/11 00:00:55;;;;;;;0.60;0.40;;;3.60;99.90;;;;;;10346785;23;20355;-80
2023/01/11 00:04:56;;;;;;;0.80;0.57;;;3.60;99.90;;;;;;10348480;22;20431;-80
2023/01/11 00:08:57;;;;;;;0.35;0.35;;;3.60;99.90;;;;;;10347360;23;20099;-79
2023/01/11 00:12:58;;;;;;;0.60;0.60;;;3.70;99.90;;;;;;10346261;23;20450;-81
2023/01/11 00:16:59;;;;;;;0.65;0.40;;;3.70;99.90;;;;;;10346707;22;20003;-80
2023/01/11 00:21:04;;;;;;;3.42;0.80;;;3.90;99.90;;;;;;10343956;23;20087;-80
2023/01/11 00:25:05;;;;;;;2.30;0.50;;;3.90;99.90;;;;;;10345877;22;20011;-81
2023/01/11 00:29:06;;;;;;;0.40;0.22;;;3.90;99.90;;;;;;10348550;23;20000;-80
2023/01/11 00:33:09;;;;;;;0.40;0.20;;;3.90;99.90;;;;;;10347509;23;20007;-80
2023/01/11 00:37:10;;;;;;;0.40;0.40;;;4.10;99.90;;;;;;10346156;22;20004;-81
2023/01/11 00:49:51;;;;;;;2.13;0.55;;;4.20;99.90;;;;;;10347863;23;20067;-81
2023/01/11 00:53:51;;;;;;;0.38;0.20;;;4.40;99.90;;;;;;10346594;23;20087;-81
2023/01/11 00:57:53;;;;;;;2.20;0.32;;;4.40;99.90;;;;;;10347319;22;20004;-81
2023/01/11 01:01:53;;;;;;;0.57;0.30;;;4.50;99.90;;;;;;10347061;23;20004;-81
2023/01/11 01:05:54;;;;;;;0.82;0.35;;;4.50;99.90;;;;;;10346042;22;20011;-82
2023/01/11 01:09:55;;;;;;;0.75;0.28;;;4.60;99.90;;;;;;10347053;23;20003;-81
2023/01/11 01:18:14;;;;;;;0.38;0.20;;;4.50;99.90;;;;;;10348273;22;20027;-81
2023/01/11 01:22:15;;;;;;;0.30;0.30;;;4.60;99.90;;;;;;10346821;23;20043;-79
2023/01/11 01:26:15;;;;;;;0.52;0.40;;;4.60;99.90;;;;;;10348344;22;20004;-81
2023/01/11 01:30:16;;;;;;;0.57;0.40;;;4.50;99.90;;;;;;10348158;23;20004;-82
2023/01/11 01:34:17;;;;;;;0.60;0.38;;;4.60;99.90;;;;;;10347610;23;20347;-81
2023/01/11 01:38:17;;;;;;;0.63;0.38;;;4.60;99.90;;;;;;10347788;22;20087;-81
2023/01/11 01:42:19;;;;;;;0.55;0.30;;;4.70;99.90;;;;;;10347411;23;20057;-82
2023/01/11 01:46:25;;;;;;;0.40;0.40;;;4.70;99.90;;;;;;10351657;22;20039;-81
2023/01/11 01:50:35;;;;;;;0.65;0.30;;;4.90;99.90;;;;;;10348480;23;20532;-81
2023/01/11 01:54:41;;;;;;;1.45;0.30;;;4.90;99.90;;;;;;10348442;22;20091;-81
2023/01/11 01:58:47;;;;;;;1.42;0.28;;;5.00;99.90;;;;;;10348533;23;20000;-81
2023/01/11 02:02:48;;;;;;;2.08;0.40;;;5.10;99.90;;;;;;10346124;23;20000;-81
2023/01/11 02:06:53;;;;;;;1.80;0.40;;;5.10;99.90;;;;;;10345786;22;20004;-82
2023/01/11 02:10:54;;;;;;;1.00;0.35;;;5.10;99.90;;;;;;10346486;23;20012;-81
2023/01/11 02:14:57;;;;;;;2.20;0.38;;;5.10;99.90;;;;;;10346445;22;20012;-81
2023/01/11 02:18:59;;;;;;;1.55;0.47;;;5.10;99.90;;;;;;10350472;22;19996;-81
2023/01/11 02:23:07;;;;;;;0.60;0.32;;;5.10;99.90;;;;;;10346981;23;20008;-82
2023/01/11 02:27:23;;;;;;;1.75;0.30;;;5.10;99.90;;;;;;10346698;22;20028;-81
2023/01/11 02:31:38;;;;;;;0.17;0.17;;;5.10;99.90;;;;;;10347245;23;20100;-81
2023/01/11 02:35:53;;;;;;;0.28;0.22;;;5.30;99.90;;;;;;10348383;22;20242;-81
2023/01/11 02:40:35;;;;;;;1.25;0.30;;;5.40;99.90;;;;;;10347594;23;20000;-80
2023/01/11 02:45:01;;;;;;;0.50;0.40;;;5.30;99.90;;;;;;10337760;22;20011;-82
2023/01/11 02:49:21;;;;;;;0.20;0.15;;;5.40;99.90;;;;;;10350471;22;20015;-81
2023/01/11 02:53:31;;;;;;;0.30;0.20;;;5.40;99.90;;;;;;10350162;23;20008;-82
2023/01/11 02:57:33;;;;;;;0.60;0.30;;;5.40;99.90;;;;;;10349639;22;20000;-81
2023/01/11 03:01:47;;;;;;;1.10;0.30;;;5.40;99.90;;;;;;10349910;23;20008;-81
2023/01/11 03:05:53;;;;;;;2.17;0.22;;;5.40;99.90;;;;;;10350374;22;20015;-81
2023/01/11 03:10:15;;;;;;;0.70;0.30;;;5.50;99.90;;;;;;10349941;23;20063;-82
2023/01/11 03:14:25;;;;;;;0.55;0.20;;;5.50;99.90;;;;;;10354152;23;20008;-82
2023/01/11 03:18:47;;;;;;;1.02;0.20;;;5.60;99.90;;;;;;10354212;22;20087;-81
2023/01/11 03:23:03;;;;;;;0.57;0.38;;;5.60;99.90;;;;;;10354895;23;20012;-80
2023/01/11 03:27:18;;;;;;;0.50;0.30;;;5.60;99.90;;;;;;10355478;22;20046;-82
2023/01/11 03:31:27;;;;;;;0.70;0.32;;;5.60;99.90;;;;;;10356495;23;20015;-81
2023/01/11 03:35:38;;;;;;;0.25;0.25;;;5.60;99.90;;;;;;10357338;22;19996;-83
2023/01/11 03:39:45;;;;;;;0.60;0.20;;;5.60;99.90;;;;;;10356962;23;20011;-81
2023/01/11 03:43:49;;;;;;;0.60;0.38;;;5.50;99.90;;;;;;10356957;23;20458;-81
2023/01/11 03:47:51;;;;;;;0.40;0.30;;;5.60;99.90;;;;;;10356344;22;20026;-82
2023/01/11 03:51:55;;;;;;;0.32;0.25;;;5.70;99.90;;;;;;10357197;23;20453;-82
2023/01/11 03:55:57;;;;;;;0.30;0.30;;;5.70;99.90;;;;;;10357736;22;20001;-82
2023/01/11 03:59:58;;;;;;;0.22;0.20;;;5.70;99.90;;;;;;10356468;23;20028;-82
2023/01/11 04:03:59;;;;;;;1.83;0.40;;;5.70;99.90;;;;;;10354009;23;20031;-82
2023/01/11 04:07:59;;;;;;;0.20;0.20;;;5.70;99.90;;;;;;10354412;22;20000;-81
2023/01/11 04:12:00;;;;;;;0.30;0.17;;;5.70;99.90;;;;;;10359954;23;20140;-83
2023/01/11 04:16:00;;;;;;;0.55;0.20;;;5.80;99.90;;;;;;10355776;22;20008;-82
2023/01/11 04:20:01;;;;;;;0.82;0.35;;;5.70;99.90;;;;;;10355917;23;19996;-82
2023/01/11 04:24:01;;;;;;;1.55;0.40;;;5.80;99.90;;;;;;10356329;23;20024;-81
2023/01/11 04:28:03;;;;;;;0.40;0.30;;;5.80;99.90;;;;;;10356339;22;20008;-82
2023/01/11 04:32:04;;;;;;;2.05;0.30;;;5.80;99.90;;;;;;10358814;23;20008;-82
2023/01/11 04:36:06;;;;;;;0.50;0.40;;;5.80;99.90;;;;;;10357206;22;20019;-81
2023/01/11 04:40:08;;;;;;;0.30;0.30;;;5.90;99.90;;;;;;10356801;23;20000;-82
2023/01/11 04:44:09;;;;;;;2.22;0.60;;;5.90;99.90;;;;;;10358566;23;20068;-81
2023/01/11 04:48:09;;;;;;;0.47;0.30;;;5.90;99.90;;;;;;10348878;22;20283;-82
2023/01/11 04:52:12;;;;;;;0.30;0.30;;;5.90;99.90;;;;;;10354082;23;20265;-82
2023/01/11 04:56:12;;;;;;;1.23;0.60;;;5.90;99.90;;;;;;10352252;22;20028;-81
2023/01/11 05:00:14;;;;;;;0.30;0.20;;;5.80;99.90;;;;;;10357608;23;20002;-82
2023/01/11 05:04:15;;;;;;;0.95;0.40;;;5.70;99.90;;;;;;10355353;23;20047;-82
2023/01/11 05:08:15;;;;;;;0.22;0.20;;;5.70;99.90;;;;;;10356676;22;20004;-82
2023/01/11 05:12:16;;;;;;;0.77;0.47;;;5.70;99.90;;;;;;10356741;23;20023;-81
2023/01/11 05:16:18;;;;;;;0.32;0.32;;;5.90;99.90;;;;;;10356591;22;20005;-81
2023/01/11 05:20:18;;;;;;;0.40;0.20;;;5.90;99.90;;;;;;10357039;23;20008;-82
2023/01/11 05:24:19;;;;;;;0.57;0.35;;;6.00;99.90;;;;;;10353407;23;20083;-81
2023/01/11 05:28:19;;;;;;;1.17;0.32;;;6.00;99.90;;;;;;10351612;22;20004;-82
2023/01/11 05:32:20;;;;;;;0.47;0.30;;;6.10;99.90;;;;;;10350977;23;20087;-83
2023/01/11 05:36:21;;;;;;;0.28;0.28;;;6.20;99.90;;;;;;10352474;22;20015;-82
2023/01/11 05:40:22;;;;;;;0.90;0.40;;;6.20;99.90;;;;;;10352914;23;20050;-83
2023/01/11 05:48:41;;;;;;;0.30;0.30;;;6.10;99.90;;;;;;10355444;23;20361;-82
2023/01/11 05:52:42;;;;;;;0.50;0.40;;;6.10;99.90;;;;;;10356617;23;20008;-83
2023/01/11 05:56:42;;;;;;;1.27;0.43;;;6.10;99.90;;;;;;10355097;22;20445;-83
2023/01/11 06:00:45;;;;;;;0.20;0.20;;;6.10;99.90;;;;;;10352881;23;20044;-83
2023/01/11 06:04:46;;;;;;;0.20;0.20;;;6.10;99.90;;;;;;10355143;22;20004;-82
2023/01/11 06:08:47;;;;;;;1.02;0.57;;;6.20;99.90;;;;;;10354256;23;20461;-83
2023/01/11 06:13:25;;;;;;;0.82;0.30;;;6.20;99.90;;;;;;10354512;23;20099;-81
2023/01/11 06:17:11;;;;;;;0.70;0.40;;;6.10;99.90;;;;;;10356600;22;20012;-82
2023/01/11 06:21:13;;;;;;;0.20;0.20;;;6.20;99.90;;;;;;10354777;23;20042;-83
2023/01/11 06:25:13;;;;;;;2.08;0.35;;;6.30;99.90;;;;;;10354647;22;20018;-82
2023/01/11 06:29:14;;;;;;;1.55;0.30;;;6.30;99.90;;;;;;10357055;23;20004;-83
2023/01/11 06:33:14;;;;;;;0.88;0.47;;;6.30;99.90;;;;;;10356284;23;20000;-83
2023/01/11 06:37:15;;;;;;;0.30;0.30;;;6.50;99.90;;;;;;10357177;22;20004;-82
2023/01/11 06:41:15;;;;;;;0.63;0.20;;;6.40;99.90;;;;;;10358172;23;20008;-82
2023/01/11 06:45:16;;;;;;;1.67;0.70;;;6.50;99.90;;;;;;10359254;22;20328;-82
2023/01/11 06:49:16;;;;;;;0.20;0.20;;;6.50;99.90;;;;;;10363536;23;20007;-83
2023/01/11 06:53:17;;;;;;;0.30;0.30;;;6.40;99.90;;;;;;10372625;22;20003;-81
2023/01/11 06:57:17;;;;;;;1.25;0.60;;;6.40;99.90;;;;;;10348783;22;20008;-82
2023/01/11 07:01:18;;;;;;;0.95;0.50;;;6.40;99.90;;;;;;10338885;23;20008;-82
2023/01/11 07:05:18;;;;;;;0.30;0.30;;;6.40;99.90;;;;;;10343257;22;20001;-82
2023/01/11 07:09:19;;;;;;;0.38;0.25;;;6.40;99.90;;;;;;10340204;23;20576;-81
2023/01/11 07:13:20;;;;;;;0.35;0.30;;;6.30;99.90;;;;;;10340222;23;20036;-81
2023/01/11 07:17:20;;;;;;;0.35;0.30;;;6.40;99.90;;;;;;10341425;22;20008;-82
2023/01/11 07:21:21;;;;;;;0.40;0.40;;;6.30;99.90;;;;;;10341395;23;20360;-82
2023/01/11 07:25:22;;;;;;;0.93;0.40;;;6.20;99.90;;;;;;10340985;22;20012;-82
2023/01/11 07:29:22;;;;;;;1.30;0.60;;;6.20;99.90;;;;;;10342788;23;20007;-81
2023/01/11 07:33:23;;;;;;;2.85;0.70;;;6.30;99.90;;;;;;10344486;23;20498;-82
2023/01/11 07:37:24;;;;;;;0.10;0.10;;;6.30;99.90;;;;;;10341935;22;20009;-82
2023/01/11 07:45:49;;;;;;;0.73;0.50;;;6.30;99.90;;;;;;10344309;22;20468;-82
2023/01/11 07:49:50;;;;;;;0.82;0.38;;;6.20;99.90;;;;;;10341068;23;20403;-82
2023/01/11 07:53:50;;;;;;;0.82;0.40;;;6.00;99.90;;;;;;10340740;23;20020;-82
2023/01/11 07:57:55;;;;;;;1.17;0.70;;;5.80;99.90;;;;;;10341794;22;20075;-82
2023/01/11 08:01:55;;;;;;;1.52;0.40;;;5.70;99.90;;;;;;10342169;23;20390;-82
2023/01/11 08:05:56;;;;;;;0.38;0.38;;;5.60;99.90;;;;;;10341742;22;20018;-82
2023/01/11 08:09:56;;;;;;;0.90;0.50;;;5.50;99.90;;;;;;10343813;23;20012;-83
2023/01/11 08:18:16;;;;;;;0.65;0.30;;;5.50;99.90;;;;;;10346115;22;20015;-82
2023/01/11 08:22:17;;;;;;;0.65;0.50;;;5.50;99.90;;;;;;10343126;23;20012;-82
2023/01/11 08:26:17;;;;;;;0.93;0.50;;;5.70;99.90;;;;;;10342307;22;20019;-82
2023/01/11 08:30:18;;;;;;;0.75;0.40;;;5.80;99.90;;;;;;10342783;23;20477;-82
2023/01/11 08:34:18;;;;;;;0.77;0.40;;;6.00;99.90;;;;;;10347112;23;20000;-83
2023/01/11 08:38:19;;;;;;;2.58;0.47;;;6.20;99.90;;;;;;10344466;22;20087;-83
2023/01/11 08:42:19;;;;;;;0.80;0.40;;;6.30;99.90;;;;;;10345908;23;20010;-82
2023/01/11 08:46:20;;;;;;;1.48;0.20;;;6.30;99.90;;;;;;10345590;22;20047;-83
2023/01/11 08:50:21;;;;;;;0.20;0.20;;;6.50;99.90;;;;;;10344861;23;20059;-83
2023/01/11 08:54:22;;;;;;;0.43;0.17;;;6.90;99.90;;;;;;10345318;23;20008;-83
2023/01/11 08:58:22;;;;;;;0.60;0.30;;;7.40;99.90;;;;;;10347346;22;20004;-81
2023/01/11 09:02:23;;;;;;;0.20;0.20;;;7.80;99.90;;;;;;10344310;23;20000;-83
2023/01/11 09:06:23;;;;;;;0.70;0.30;;;8.00;99.90;;;;;;10344601;22;20080;-82
2023/01/11 09:10:25;;;;;;;0.32;0.20;;;8.40;99.90;;;;;;10343948;23;20095;-83
2023/01/11 09:14:28;;;;;;;0.85;0.20;;;8.50;99.90;;;;;;10345535;23;20035;-83
2023/01/11 09:18:28;;;;;;;0.25;0.20;;;8.50;99.90;;;;;;10346285;22;20326;-82
2023/01/11 09:22:29;;;;;;;0.30;0.10;;;8.50;99.90;;;;;;10344504;23;20004;-82
2023/01/11 09:26:29;;;;;;;0.85;0.30;;;8.60;99.90;;;;;;10346306;22;20581;-83
2023/01/11 09:30:30;;;;;;;0.47;0.30;;;8.70;99.90;;;;;;10345312;23;20346;-83
2023/01/11 09:34:30;;;;;;;0.47;0.20;;;8.70;99.90;;;;;;10344615;22;20000;-82
2023/01/11 09:38:32;;;;;;;0.32;0.32;;;8.90;99.90;;;;;;10345959;23;20096;-83
2023/01/11 09:42:36;;;;;;;0.47;0.28;;;9.00;99.90;;;;;;10345383;23;20011;-83
2023/01/11 09:46:41;;;;;;;0.52;0.30;;;9.10;99.90;;;;;;10348697;22;20031;-82
2023/01/11 09:50:46;;;;;;;0.32;0.20;;;9.20;99.90;;;;;;10349129;22;20000;-83
2023/01/11 09:54:47;;;;;;;0.30;0.30;;;9.30;99.90;;;;;;10346284;22;20015;-83
2023/01/11 09:59:06;;;;;;;1.52;0.40;;;9.20;99.90;;;;;;10348803;23;19996;-82
2023/01/11 10:03:22;;;;;;;0.35;0.30;;;9.30;99.90;;;;;;10364455;22;20020;-79
2023/01/11 10:07:56;;;;;;;0.20;0.20;;;9.20;99.90;;;;;;10381180;22;20008;-79
2023/01/11 10:12:07;;;;;;;0.20;0.20;;;9.10;99.90;;;;;;10363363;22;20012;-79
2023/01/11 10:16:17;;;;;;;1.33;0.35;;;9.00;99.90;;;;;;10330761;23;20099;-80
2023/01/11 10:20:33;;;;;;;1.38;0.50;;;9.00;99.90;;;;;;10331893;23;20000;-80
2023/01/11 10:24:55;;;;;;;1.10;0.70;;;9.00;99.90;;;;;;10330116;23;20007;-79
2023/01/11 10:30:11;;;;;;;0.43;0.40;;;9.00;99.90;;;;;;10330543;23;20470;-80
2023/01/11 10:42:32;;;;;;;0.55;0.40;;;9.20;99.90;;;;;;10332096;22;20070;-79
2023/01/11 10:46:38;;;;;;;0.43;0.30;;;9.30;99.90;;;;;;10330909;23;20004;-80
2023/01/11 10:50:53;;;;;;;1.05;0.40;;;9.20;99.90;;;;;;10331432;22;20016;-79
2023/01/11 10:54:56;;;;;;;0.80;0.60;;;9.30;99.90;;;;;;10330577;23;20188;-79
2023/01/11 10:59:16;;;;;;;1.15;0.50;;;9.10;99.90;;;;;;10332905;23;19993;-80
2023/01/11 11:04:01;;;;;;;0.37;0.37;;;9.40;99.90;;;;;;10330861;22;20023;-80
2023/01/11 11:08:13;;;;;;;0.73;0.40;;;9.40;99.90;;;;;;10198973;22;20188;-79
2023/01/11 11:12:29;;;;;;;1.23;0.40;;;9.30;99.90;;;;;;10330332;22;20373;-79
2023/01/11 11:16:56;;;;;;;1.05;0.40;;;9.40;99.90;;;;;;10329735;23;20011;-80
2023/01/11 11:21:02;;;;;;;2.55;0.50;;;9.50;99.90;;;;;;10329987;22;20000;-79
2023/01/11 11:25:17;;;;;;;0.77;0.40;;;9.70;99.90;;;;;;10329425;23;20043;-80
2023/01/11 11:29:27;;;;;;;2.40;0.40;;;9.80;99.90;;;;;;10332047;22;20008;-80
2023/01/11 11:33:35;;;;;;;0.40;0.40;;;10.10;99.90;;;;;;10332197;22;20008;-80
2023/01/11 11:37:42;;;;;;;0.70;0.57;;;10.10;99.90;;;;;;10334117;23;20350;-80
2023/01/11 11:41:52;;;;;;;0.75;0.55;;;10.20;99.90;;;;;;10335906;22;20008;-79
2023/01/11 11:45:54;;;;;;;0.90;0.70;;;10.00;99.90;;;;;;10335085;23;20004;-79
2023/01/11 11:50:18;;;;;;;0.47;0.40;;;10.00;99.90;;;;;;10335659;23;20457;-80
2023/01/11 11:54:27;;;;;;;1.70;0.80;;;10.00;99.90;;;;;;10333430;22;20191;-81
2023/01/11 11:58:27;;;;;;;0.95;0.55;;;10.00;99.90;;;;;;10334204;23;20014;-80
2023/01/11 12:02:31;;;;;;;0.50;0.40;;;10.00;99.90;;;;;;10336353;22;20012;-80
2023/01/11 12:06:31;;;;;;;1.02;0.65;;;10.10;99.90;;;;;;10335924;22;20000;-80
2023/01/11 12:10:32;;;;;;;0.40;0.40;;;9.80;99.90;;;;;;10336020;23;20099;-79
2023/01/11 12:14:34;;;;;;;1.63;0.60;;;9.60;99.90;;;;;;10333914;22;20434;-79
2023/01/11 12:18:42;;;;;;;1.20;0.73;;;9.30;99.90;;;;;;10335677;23;20056;-79
2023/01/11 12:22:43;;;;;;;1.52;0.75;;;8.90;99.90;;;;;;10334468;22;20079;-79
2023/01/11 12:27:15;;;;;;;0.90;0.70;;;8.90;99.90;;;;;;10338683;23;20012;-80
2023/01/11 12:31:24;;;;;;;0.65;0.52;;;8.70;99.90;;;;;;10336718;22;20047;-81
2023/01/11 12:35:39;;;;;;;2.53;0.73;;;8.60;99.90;;;;;;10335734;23;20032;-81
2023/01/11 12:39:52;;;;;;;0.70;0.40;;;8.50;99.90;;;;;;10335228;23;20004;-81
2023/01/11 12:44:11;;;;;;;0.68;0.60;;;8.60;99.90;;;;;;10335656;22;20016;-80
2023/01/11 12:48:33;;;;;;;0.90;0.68;;;8.50;99.90;;;;;;10336980;22;19996;-80
2023/01/11 12:52:59;;;;;;;0.68;0.50;;;8.60;99.90;;;;;;10334909;22;20053;-80
2023/01/11 12:57:28;;;;;;;0.98;0.50;;;8.60;99.90;;;;;;10332632;23;20018;-80
2023/01/11 13:02:09;;;;;;;0.80;0.50;;;8.60;99.90;;;;;;10333850;22;20018;-81
2023/01/11 13:06:33;;;;;;;1.02;0.65;;;8.50;99.90;;;;;;10333569;23;20435;-80
2023/01/11 13:10:43;;;;;;;0.40;0.40;;;8.40;99.90;;;;;;10332349;22;20000;-80
2023/01/11 13:15:18;;;;;;;0.57;0.35;;;8.30;99.90;;;;;;10332413;23;20000;-81
2023/01/11 13:19:43;;;;;;;0.60;0.30;;;8.30;99.90;;;;;;10334134;22;19997;-81
2023/01/11 13:23:54;;;;;;;0.60;0.40;;;8.20;99.90;;;;;;10332002;22;20011;-80
2023/01/11 13:27:57;;;;;;;0.73;0.50;;;8.20;99.90;;;;;;10332526;23;20044;-81
2023/01/11 13:32:02;;;;;;;1.05;0.63;;;8.20;99.90;;;;;;10332817;22;20023;-80
2023/01/11 13:36:12;;;;;;;0.47;0.32;;;8.20;99.90;;;;;;10332217;23;20038;-80
2023/01/11 13:40:50;;;;;;;0.43;0.30;;;8.20;99.90;;;;;;10332863;23;20349;-80
2023/01/11 13:45:00;;;;;;;0.93;0.50;;;8.00;99.90;;;;;;10270364;23;20103;-80
2023/01/11 13:49:12;;;;;;;0.80;0.38;;;7.90;99.90;;;;;;10331807;23;20065;-80
2023/01/11 13:53:34;;;;;;;1.00;0.40;;;7.80;99.90;;;;;;10333095;22;20028;-80
2023/01/11 13:57:40;;;;;;;0.50;0.45;;;7.70;99.90;;;;;;10331114;23;20087;-80
2023/01/11 14:01:54;;;;;;;1.35;0.47;;;7.60;99.90;;;;;;10330442;22;20374;-79
2023/01/11 14:06:24;;;;;;;2.15;0.57;;;7.60;99.90;;;;;;10330405;23;20015;-79
2023/01/11 14:10:35;;;;;;;0.55;0.45;;;7.50;99.90;;;;;;10276823;23;20062;-80
2023/01/11 14:15:07;;;;;;;0.68;0.50;;;7.50;99.90;;;;;;10330371;23;20297;-80
2023/01/11 14:19:40;;;;;;;1.92;0.60;;;7.50;99.90;;;;;;10330668;23;20024;-80
2023/01/11 14:23:53;;;;;;;1.50;0.50;;;7.60;99.90;;;;;;10330106;22;20011;-80
2023/01/11 14:28:06;;;;;;;0.93;0.47;;;7.50;99.90;;;;;;10332063;22;20004;-80
2023/01/11 14:32:37;;;;;;;1.05;0.47;;;7.60;99.90;;;;;;10331255;22;20035;-79
2023/01/11 14:37:16;;;;;;;1.00;0.50;;;7.60;99.90;;;;;;10332210;23;20007;-80
2023/01/11 14:41:36;;;;;;;0.63;0.55;;;7.40;99.90;;;;;;10331131;22;20035;-80
2023/01/11 14:46:09;;;;;;;4.03;1.23;;;7.40;99.90;;;;;;10331509;22;20076;-80
2023/01/11 14:50:14;;;;;;;1.27;0.65;;;7.30;99.90;;;;;;10330618;23;20004;-79
2023/01/11 14:54:22;;;;;;;3.05;1.55;;;7.40;99.90;;;;;;10330876;22;20023;-79
2023/01/11 14:58:31;;;;;;;1.23;0.70;;;7.30;99.90;;;;;;10332076;22;19996;-79
2023/01/11 15:02:31;;;;;;;1.90;0.70;;;7.30;99.90;;;;;;10330074;22;20034;-80
2023/01/11 15:06:53;;;;;;;1.25;0.75;;;7.30;99.90;;;;;;10331785;23;20012;-80
2023/01/11 15:11:04;;;;;;;1.05;0.50;;;7.30;99.90;;;;;;10335347;22;20004;-80
2023/01/11 15:15:13;;;;;;;1.00;0.70;;;7.40;99.90;;;;;;10335471;23;19996;-80
2023/01/11 15:19:32;;;;;;;0.55;0.50;;;7.40;99.90;;;;;;10335366;22;20030;-80
2023/01/11 15:23:35;;;;;;;0.70;0.60;;;7.30;99.90;;;;;;10334753;22;20011;-79
2023/01/11 15:27:37;;;;;;;0.90;0.52;;;7.30;99.90;;;;;;10333236;23;20011;-79
2023/01/11 15:31:55;;;;;;;0.98;0.60;;;7.30;99.90;;;;;;10334042;22;20012;-79
2023/01/11 15:35:55;;;;;;;1.08;0.70;;;7.40;99.90;;;;;;10333175;23;20004;-80
2023/01/11 15:40:12;;;;;;;1.05;0.68;;;7.30;99.90;;;;;;10333493;23;20011;-80
2023/01/11 15:44:35;;;;;;;17.42;6.32;;;7.30;99.90;;;;;;10333954;22;20004;-80
2023/01/11 15:49:06;;;;;;;6.72;4.25;;;7.40;99.90;;;;;;10335262;23;20518;-80
2023/01/11 15:53:37;;;;;;;8.40;4.18;;;7.30;99.90;;;;;;10335378;22;20397;-80
2023/01/11 15:57:54;;;;;;;11.07;5.63;;;7.30;99.90;;;;;;10337312;22;20015;-81
2023/01/11 16:06:18;;;;;;;15.57;7.18;;;7.30;99.90;;;;;;10391639;22;20115;-81
2023/01/11 16:10:47;;;;;;;8.40;4.30;;;7.30;99.90;;;;;;10389401;22;19999;-80
2023/01/11 16:15:15;;;;;;;5.72;3.35;;;7.30;99.90;;;;;;10340854;22;20638;-81
2023/01/11 16:19:19;;;;;;;2.78;1.80;;;7.30;99.90;;;;;;10338265;23;20004;-81
2023/01/11 16:23:20;;;;;;;1.90;1.33;;;7.40;99.90;;;;;;10337899;22;20010;-80
2023/01/11 16:27:27;;;;;;;9.20;5.90;;;7.40;99.90;;;;;;10337747;23;20462;-80
2023/01/11 16:31:58;;;;;;;1.45;1.30;;;7.40;99.90;;;;;;10340435;22;20072;-82
2023/01/11 16:36:17;;;;;;;3.05;2.17;;;7.30;99.90;;;;;;10337065;23;20012;-80
2023/01/11 16:40:31;;;;;;;2.00;1.75;;;7.30;99.90;;;;;;10341458;22;20012;-80
2023/01/11 16:44:40;;;;;;;1.60;1.40;;;7.30;99.90;;;;;;10338155;22;20011;-80
2023/01/11 16:48:41;;;;;;;1.63;1.40;;;7.20;99.90;;;;;;10337188;23;20080;-80
2023/01/11 16:52:44;;;;;;;1.60;1.10;;;7.20;99.90;;;;;;10336722;22;20008;-80
2023/01/11 16:56:49;;;;;;;1.73;1.27;;;7.10;99.90;;;;;;10338217;22;20000;-79
2023/01/11 17:01:00;;;;;;;1.45;1.35;;;7.10;99.90;;;;;;10336151;23;20000;-80
2023/01/11 17:05:00;;;;;;;1.60;1.23;;;7.00;99.90;;;;;;10335828;22;20015;-80
2023/01/11 17:09:04;;;;;;;1.25;1.10;;;7.00;99.90;;;;;;10334222;23;20374;-81
2023/01/11 17:17:38;;;;;;;1.10;1.00;;;7.00;99.90;;;;;;10334922;23;20603;-79
2023/01/11 17:21:44;;;;;;;3.00;1.85;;;7.10;99.90;;;;;;10334250;22;20000;-81
2023/01/11 17:25:45;;;;;;;1.80;1.15;;;7.10;99.90;;;;;;10335293;23;20031;-81
2023/01/11 17:29:46;;;;;;;2.53;1.38;;;6.80;99.90;;;;;;10335353;23;20004;-80
2023/01/11 17:33:47;;;;;;;2.33;1.60;;;6.90;99.90;;;;;;10337686;22;20014;-80
2023/01/11 17:38:10;;;;;;;4.63;2.40;;;6.80;99.90;;;;;;10336443;23;20051;-80
2023/01/11 17:46:33;;;;;;;2.15;1.60;;;6.90;99.90;;;;;;10337195;23;20070;-80
2023/01/11 17:50:44;;;;;;;1.55;1.02;;;6.70;99.90;;;;;;10336123;23;20015;-81
2023/01/11 17:54:45;;;;;;;1.17;1.08;;;6.80;99.90;;;;;;10335904;22;20008;-80
2023/01/11 17:58:45;;;;;;;1.95;1.20;;;6.90;99.90;;;;;;10335277;23;20581;-81
2023/01/11 18:02:46;;;;;;;2.20;1.50;;;6.90;99.90;;;;;;10341236;22;20015;-81
2023/01/11 18:06:49;;;;;;;1.75;1.23;;;7.00;99.90;;;;;;10336146;23;20098;-79
2023/01/11 18:10:54;;;;;;;1.52;1.23;;;7.00;99.90;;;;;;10337771;23;20012;-80
2023/01/11 18:14:58;;;;;;;2.63;1.30;;;6.80;99.90;;;;;;10341121;22;20287;-80
2023/01/11 18:18:59;;;;;;;2.90;1.45;;;6.80;99.90;;;;;;10340094;23;20004;-81
2023/01/11 18:23:15;;;;;;;1.95;1.40;;;6.90;99.90;;;;;;10335232;22;20035;-80
2023/01/11 18:27:23;;;;;;;2.08;1.20;;;6.70;99.90;;;;;;10334630;23;20008;-80
2023/01/11 18:31:24;;;;;;;1.63;1.10;;;6.80;99.90;;;;;;10338531;22;20004;-79
2023/01/11 18:35:25;;;;;;;2.53;1.10;;;6.60;99.90;;;;;;10336112;23;20015;-80
2023/01/11 18:39:25;;;;;;;1.42;1.02;;;6.50;99.90;;;;;;10338381;23;20341;-81
2023/01/11 18:43:30;;;;;;;2.65;0.73;;;6.70;99.90;;;;;;10346122;22;20454;-81
2023/01/11 18:47:30;;;;;;;1.42;0.70;;;6.60;99.90;;;;;;10344774;23;20008;-80
2023/01/11 18:51:34;;;;;;;11.15;7.45;;;6.60;99.90;;;;;;10342724;22;20496;-80
2023/01/11 18:55:35;;;;;;;2.35;1.13;;;6.60;99.90;;;;;;10340667;23;20012;-81
2023/01/11 18:59:36;;;;;;;1.23;0.75;;;6.40;99.90;;;;;;10339243;23;20005;-81
2023/01/11 19:03:37;;;;;;;1.50;1.10;;;6.30;99.90;;;;;;10338230;22;20070;-81
2023/01/11 19:07:37;;;;;;;1.00;0.70;;;6.40;99.90;;;;;;10337922;23;20075;-79
2023/01/11 19:11:38;;;;;;;2.58;1.17;;;6.30;99.90;;;;;;10339823;22;20012;-81
2023/01/11 19:15:38;;;;;;;1.60;1.00;;;6.30;99.90;;;;;;10340792;23;20019;-80
2023/01/11 19:19:39;;;;;;;1.35;1.10;;;6.20;99.90;;;;;;10341521;23;19996;-81
2023/01/11 19:23:40;;;;;;;1.73;1.30;;;6.40;99.90;;;;;;10342155;22;20718;-80
2023/01/11 19:27:41;;;;;;;2.38;1.38;;;6.10;99.90;;;;;;10339737;23;20008;-79
2023/01/11 19:31:43;;;;;;;2.15;1.35;;;6.10;99.90;;;;;;10340778;22;20035;-79
2023/01/11 19:35:46;;;;;;;2.40;1.60;;;6.10;99.90;;;;;;10340130;23;20012;-80
2023/01/11 19:39:46;;;;;;;2.13;1.23;;;6.30;99.90;;;;;;10338950;23;20004;-81
2023/01/11 19:43:47;;;;;;;2.03;1.38;;;6.40;99.90;;;;;;10341589;22;20084;-80
2023/01/11 19:47:48;;;;;;;4.35;1.50;;;6.40;99.90;;;;;;10338487;23;20020;-80
2023/01/11 19:51:48;;;;;;;2.55;1.92;;;6.40;99.90;;;;;;10338015;22;20594;-80
2023/01/11 19:55:49;;;;;;;1.70;1.42;;;6.20;99.90;;;;;;10320508;22;20019;-81
2023/01/11 19:59:50;;;;;;;2.03;1.65;;;6.30;99.90;;;;;;10232858;23;20009;-81
2023/01/11 20:03:50;;;;;;;2.45;1.95;;;6.30;99.90;;;;;;10233185;23;20363;-80
2023/01/11 20:07:52;;;;;;;2.25;1.90;;;6.30;99.90;;;;;;10235725;23;20009;-79
2023/01/11 20:11:54;;;;;;;2.60;1.98;;;6.30;99.90;;;;;;10237556;23;20001;-81
2023/01/11 20:15:54;;;;;;;2.85;1.60;;;6.30;99.90;;;;;;10229160;23;20345;-81
2023/01/11 20:19:55;;;;;;;3.40;1.77;;;6.30;99.90;;;;;;10227400;23;20001;-81
2023/01/11 20:23:56;;;;;;;3.40;2.17;;;6.30;99.90;;;;;;10231449;23;20450;-81
2023/01/11 20:27:57;;;;;;;2.50;1.77;;;6.30;99.90;;;;;;10231634;23;20073;-81
2023/01/11 20:32:00;;;;;;;2.17;1.50;;;6.10;99.90;;;;;;10234067;23;20013;-80
2023/01/11 20:36:15;;;;;;;4.03;1.52;;;6.20;99.90;;;;;;10231563;23;20057;-80
2023/01/11 20:40:16;;;;;;;2.05;1.52;;;6.30;99.90;;;;;;10233084;23;20148;-81
2023/01/11 20:44:22;;;;;;;2.58;1.02;;;6.40;99.90;;;;;;10232730;23;20001;-80
2023/01/11 20:48:23;;;;;;;1.80;1.10;;;6.50;99.90;;;;;;10234812;23;20625;-80
2023/01/11 20:52:23;;;;;;;2.15;1.02;;;6.50;99.90;;;;;;10236193;23;20092;-80
2023/01/11 20:56:24;;;;;;;2.22;0.80;;;6.50;99.90;;;;;;10236043;23;20005;-81
2023/01/11 21:00:25;;;;;;;2.22;1.00;;;6.50;99.90;;;;;;10236413;23;20020;-81
2023/01/11 21:04:25;;;;;;;0.70;0.40;;;6.50;99.90;;;;;;10236246;23;20012;-80
2023/01/11 21:08:26;;;;;;;0.77;0.50;;;6.50;99.90;;;;;;10235645;23;20064;-79
2023/01/11 21:12:26;;;;;;;0.63;0.45;;;6.50;99.90;;;;;;10237090;23;20023;-81
2023/01/11 21:16:27;;;;;;;0.68;0.52;;;6.20;99.90;;;;;;10237334;23;20009;-80
2023/01/11 21:20:28;;;;;;;1.38;0.68;;;6.00;99.90;;;;;;10238158;23;20351;-80
2023/01/11 21:24:29;;;;;;;1.80;0.82;;;5.90;99.90;;;;;;10240562;23;20008;-80
2023/01/11 21:28:29;;;;;;;2.10;1.33;;;5.90;99.90;;;;;;10237640;23;20016;-80
2023/01/11 21:32:30;;;;;;;1.50;0.90;;;6.00;99.90;;;;;;10238193;23;20017;-79
2023/01/11 21:36:30;;;;;;;1.75;1.23;;;6.10;99.90;;;;;;10238206;23;20013;-79
2023/01/11 21:40:32;;;;;;;5.63;1.33;;;6.30;99.90;;;;;;10240377;23;20431;-80
2023/01/11 21:44:33;;;;;;;1.95;0.93;;;6.30;99.90;;;;;;10236559;23;20072;-80
2023/01/11 21:48:34;;;;;;;0.93;0.65;;;6.20;99.90;;;;;;10235436;23;20156;-80
2023/01/11 21:52:35;;;;;;;1.10;0.80;;;6.40;99.90;;;;;;10236182;23;20005;-80
2023/01/11 21:56:36;;;;;;;3.55;0.90;;;6.30;99.90;;;;;;10235630;23;20028;-80
2023/01/11 22:00:37;;;;;;;1.33;0.88;;;6.10;99.90;;;;;;10236782;23;20009;-80
2023/01/11 22:04:37;;;;;;;2.05;1.35;;;5.90;99.90;;;;;;10235530;23;20027;-80
2023/01/11 22:08:38;;;;;;;2.20;1.15;;;5.50;99.90;;;;;;10236098;23;20013;-80